Time;durP1;ratioP1;P1;durP2;ratioP2;P2;SDS_P1;SDS_P2;PMS_P1;PMS_P2;Temp;Humidity;BMP_temperature;BMP_pressure;BME280_temperature;BME280_humidity;BME280_pressure;Samples;Min_cycle;Max_cycle;Signal;HPM_P1;HPM_P2
2021/10/23 04:01:06;;;;;;;7.47;2.70;;;10.10;99.90;;;;;;6221430;22;20470;-67
2021/10/23 04:03:33;;;;;;;3.80;2.40;;;10.20;99.90;;;;;;6247696;23;20442;-67
2021/10/23 04:06:00;;;;;;;3.57;2.23;;;10.20;99.90;;;;;;6247416;23;20402;-67
2021/10/23 04:08:27;;;;;;;13.17;3.40;;;10.10;99.90;;;;;;6247261;23;20899;-67
2021/10/23 04:10:53;;;;;;;3.47;3.13;;;10.20;99.90;;;;;;6247644;22;20431;-67
2021/10/23 04:13:20;;;;;;;6.50;2.90;;;10.10;99.90;;;;;;6247743;23;20494;-67
2021/10/23 04:15:47;;;;;;;6.30;3.07;;;10.10;99.90;;;;;;6247738;23;20411;-68
2021/10/23 04:18:15;;;;;;;3.17;2.27;;;10.10;99.90;;;;;;6246678;23;20879;-67
2021/10/23 04:20:42;;;;;;;4.97;3.43;;;10.10;99.90;;;;;;6247091;22;20435;-67
2021/10/23 04:23:08;;;;;;;5.00;2.73;;;10.10;99.90;;;;;;6247326;23;20418;-67
2021/10/23 04:25:35;;;;;;;5.27;2.83;;;10.10;99.90;;;;;;6247348;23;20411;-67
2021/10/23 04:28:02;;;;;;;5.10;2.10;;;10.10;99.90;;;;;;6247204;23;20422;-67
2021/10/23 04:30:28;;;;;;;3.73;2.53;;;10.10;99.90;;;;;;6246897;22;20431;-67
2021/10/23 04:32:55;;;;;;;8.37;3.80;;;10.10;99.90;;;;;;6247277;23;20417;-67
2021/10/23 04:35:24;;;;;;;5.20;2.80;;;10.20;99.90;;;;;;6247181;23;20934;-67
2021/10/23 04:37:50;;;;;;;7.13;2.90;;;10.20;99.90;;;;;;6247111;23;20772;-67
2021/10/23 04:40:17;;;;;;;4.43;3.50;;;10.20;99.90;;;;;;6247204;22;20407;-67
2021/10/23 04:42:45;;;;;;;5.07;3.07;;;10.20;99.90;;;;;;6247813;23;20411;-67
2021/10/23 04:45:11;;;;;;;3.83;2.53;;;10.20;99.90;;;;;;6247025;23;20731;-67
2021/10/23 04:47:38;;;;;;;4.17;2.43;;;10.20;99.90;;;;;;6247099;23;20419;-67
2021/10/23 04:50:05;;;;;;;4.70;2.43;;;10.10;99.90;;;;;;6247023;23;20786;-67
2021/10/23 04:52:34;;;;;;;7.07;2.93;;;10.20;99.90;;;;;;6246863;22;20434;-67
2021/10/23 04:55:00;;;;;;;3.07;2.73;;;10.20;99.90;;;;;;6247038;23;20435;-67
2021/10/23 04:57:27;;;;;;;3.70;2.87;;;10.20;99.90;;;;;;6247127;23;20411;-67
2021/10/23 04:59:54;;;;;;;2.87;2.50;;;10.20;99.90;;;;;;6247364;23;20418;-67
2021/10/23 05:02:20;;;;;;;4.50;3.17;;;10.20;99.90;;;;;;6246453;22;20438;-67
2021/10/23 05:04:47;;;;;;;4.00;2.80;;;10.20;99.90;;;;;;6255474;23;20406;-67
2021/10/23 05:07:14;;;;;;;2.87;2.57;;;10.10;99.90;;;;;;6251658;23;20411;-67
2021/10/23 05:09:42;;;;;;;6.97;3.27;;;10.10;99.90;;;;;;6246746;23;20908;-67
2021/10/23 05:12:08;;;;;;;5.47;3.50;;;10.20;99.90;;;;;;6246826;22;20430;-67
2021/10/23 05:14:35;;;;;;;6.00;3.70;;;10.20;99.90;;;;;;6246958;23;20434;-67
2021/10/23 05:17:02;;;;;;;4.80;3.50;;;10.20;99.90;;;;;;6246786;23;20499;-67
2021/10/23 05:19:29;;;;;;;5.10;2.93;;;10.20;99.90;;;;;;6246975;23;20414;-68
2021/10/23 05:21:56;;;;;;;4.90;2.87;;;10.20;99.90;;;;;;6246700;22;20438;-67
2021/10/23 05:24:22;;;;;;;5.37;3.20;;;10.20;99.90;;;;;;6246668;23;20414;-67
2021/10/23 05:26:51;;;;;;;3.67;2.93;;;10.20;99.90;;;;;;6246778;23;20418;-67
2021/10/23 05:29:17;;;;;;;6.63;3.13;;;10.20;99.90;;;;;;6246799;23;20410;-67
2021/10/23 05:31:44;;;;;;;7.43;3.00;;;10.10;99.90;;;;;;6247307;22;20431;-67
2021/10/23 05:34:11;;;;;;;4.33;2.20;;;10.10;99.90;;;;;;6246856;23;20442;-67
2021/10/23 05:36:38;;;;;;;3.37;2.87;;;10.10;99.90;;;;;;6247238;23;20411;-67
2021/10/23 05:39:04;;;;;;;6.17;3.97;;;10.10;99.90;;;;;;6246779;23;20925;-67
2021/10/23 05:41:31;;;;;;;3.70;3.17;;;10.10;99.90;;;;;;6246328;22;20939;-67
2021/10/23 05:43:59;;;;;;;4.07;3.00;;;10.10;99.90;;;;;;6248699;23;20407;-67
2021/10/23 05:46:26;;;;;;;4.67;3.00;;;10.10;99.90;;;;;;6258561;23;20410;-67
2021/10/23 05:48:53;;;;;;;4.47;2.97;;;10.20;99.90;;;;;;6258051;23;20416;-66
2021/10/23 05:51:19;;;;;;;3.40;3.07;;;10.10;99.90;;;;;;6248294;22;20931;-66
2021/10/23 05:53:46;;;;;;;7.63;3.40;;;10.00;99.90;;;;;;6249029;23;20417;-68
2021/10/23 05:56:13;;;;;;;6.27;3.80;;;9.90;99.90;;;;;;6248788;23;20465;-68
2021/10/23 05:58:40;;;;;;;6.60;4.00;;;9.80;99.90;;;;;;6248534;23;20415;-67
2021/10/23 06:01:08;;;;;;;4.00;3.37;;;9.80;99.90;;;;;;6248241;22;20470;-67
2021/10/23 06:03:38;;;;;;;4.23;3.53;;;9.70;99.90;;;;;;6248595;23;20498;-67
2021/10/23 06:06:06;;;;;;;6.40;3.20;;;9.70;99.90;;;;;;6248551;23;20407;-66
2021/10/23 06:08:35;;;;;;;7.67;3.90;;;9.70;99.90;;;;;;6248421;23;20410;-67
2021/10/23 06:11:02;;;;;;;5.70;4.00;;;9.60;99.90;;;;;;6248383;22;20511;-68
2021/10/23 06:13:28;;;;;;;6.47;3.40;;;9.60;99.90;;;;;;6247959;23;20895;-67
2021/10/23 06:15:55;;;;;;;7.37;3.40;;;9.50;99.90;;;;;;6248425;23;20430;-67
2021/10/23 06:18:23;;;;;;;7.60;3.63;;;9.50;99.90;;;;;;6248612;23;20704;-67
2021/10/23 06:20:50;;;;;;;6.33;3.50;;;9.50;99.90;;;;;;6248357;22;20434;-67
2021/10/23 06:23:17;;;;;;;6.53;3.60;;;9.60;99.90;;;;;;6248314;23;20437;-67
2021/10/23 06:25:44;;;;;;;5.03;3.33;;;9.60;99.90;;;;;;6248207;23;20891;-66
2021/10/23 06:28:10;;;;;;;7.20;3.60;;;9.70;99.90;;;;;;6248551;23;20411;-67
2021/10/23 06:30:37;;;;;;;7.93;4.03;;;9.70;99.90;;;;;;6248456;22;20438;-68
2021/10/23 06:33:04;;;;;;;6.00;3.83;;;9.70;99.90;;;;;;6248632;23;20411;-67
2021/10/23 06:35:32;;;;;;;7.90;3.47;;;9.70;99.90;;;;;;6248604;23;20522;-66
2021/10/23 06:37:59;;;;;;;4.97;3.00;;;9.70;99.90;;;;;;6248435;23;20417;-68
2021/10/23 06:40:26;;;;;;;11.20;4.27;;;9.70;99.90;;;;;;6252376;22;20410;-66
2021/10/23 06:42:52;;;;;;;8.53;3.50;;;9.80;99.90;;;;;;6260310;23;20411;-66
2021/10/23 06:45:19;;;;;;;6.13;3.67;;;9.90;99.90;;;;;;6249125;23;20470;-66
2021/10/23 06:47:46;;;;;;;4.43;3.10;;;9.90;99.90;;;;;;6249006;23;20417;-66
2021/10/23 06:50:15;;;;;;;9.70;3.80;;;9.80;99.90;;;;;;6248169;22;20418;-67
2021/10/23 06:52:43;;;;;;;5.50;3.40;;;9.80;99.90;;;;;;6248148;23;20411;-66
2021/10/23 06:55:10;;;;;;;8.63;4.07;;;9.90;99.90;;;;;;6250340;23;20430;-67
2021/10/23 06:57:37;;;;;;;5.07;3.33;;;9.80;99.90;;;;;;6250638;23;20417;-67
2021/10/23 07:00:06;;;;;;;5.20;3.30;;;9.90;99.90;;;;;;6252178;23;20478;-67
2021/10/23 07:02:38;;;;;;;9.90;4.03;;;10.00;99.90;;;;;;6249888;22;20446;-67
2021/10/23 07:05:08;;;;;;;4.93;3.87;;;10.10;99.90;;;;;;6250176;23;20458;-66
2021/10/23 07:07:35;;;;;;;7.63;3.33;;;10.20;99.90;;;;;;6250426;23;20403;-68
2021/10/23 07:10:04;;;;;;;7.30;3.63;;;10.20;99.90;;;;;;6249441;23;20779;-67
2021/10/23 07:12:30;;;;;;;4.53;3.27;;;10.40;99.90;;;;;;6249889;22;20740;-66
2021/10/23 07:14:57;;;;;;;7.13;3.60;;;10.70;99.90;;;;;;6249803;23;20431;-68
2021/10/23 07:17:24;;;;;;;8.63;3.60;;;11.00;99.90;;;;;;6249536;23;20396;-68
2021/10/23 07:19:51;;;;;;;9.27;4.60;;;11.20;99.90;;;;;;6249281;23;20415;-68
2021/10/23 07:22:18;;;;;;;8.37;4.13;;;11.50;99.90;;;;;;6248976;22;20453;-67
2021/10/23 07:24:45;;;;;;;8.10;5.17;;;11.80;99.90;;;;;;6249237;23;20414;-67
2021/10/23 07:27:13;;;;;;;5.90;3.83;;;12.20;99.90;;;;;;6249312;23;20422;-69
2021/10/23 07:29:40;;;;;;;5.67;3.83;;;12.80;99.90;;;;;;6248789;23;20421;-71
2021/10/23 07:32:07;;;;;;;4.20;3.20;;;13.20;99.90;;;;;;6248518;22;20431;-70
2021/10/23 07:34:34;;;;;;;6.33;3.63;;;13.80;99.90;;;;;;6247605;23;20951;-69
2021/10/23 07:37:00;;;;;;;8.30;3.37;;;14.60;99.90;;;;;;6251883;23;20493;-68
2021/10/23 07:39:27;;;;;;;7.33;3.03;;;15.40;99.90;;;;;;6256498;23;20411;-69
2021/10/23 07:41:55;;;;;;;5.10;3.00;;;16.20;99.90;;;;;;6255058;22;20437;-70
2021/10/23 07:44:23;;;;;;;5.93;3.20;;;17.00;99.90;;;;;;6254673;23;20798;-71
2021/10/23 07:46:50;;;;;;;6.43;3.23;;;18.00;99.90;;;;;;6249410;23;20415;-71
2021/10/23 07:49:17;;;;;;;5.20;3.53;;;18.30;99.90;;;;;;6248562;23;20461;-70
2021/10/23 07:51:43;;;;;;;7.00;2.83;;;19.30;96.80;;;;;;6248157;22;20763;-69
2021/10/23 07:54:11;;;;;;;5.27;2.83;;;19.60;95.50;;;;;;6247946;23;20922;-68
2021/10/23 07:56:38;;;;;;;5.40;3.33;;;19.20;94.30;;;;;;6250760;23;20942;-69
2021/10/23 07:59:05;;;;;;;7.17;3.00;;;19.50;94.70;;;;;;6249485;23;20411;-70
2021/10/23 08:01:33;;;;;;;9.50;3.53;;;19.80;93.00;;;;;;6248320;22;20443;-71
2021/10/23 08:04:01;;;;;;;9.93;3.43;;;20.10;92.80;;;;;;6247984;23;20754;-68
2021/10/23 08:06:28;;;;;;;2.90;2.63;;;21.40;90.40;;;;;;6263893;23;20391;-71
2021/10/23 08:08:55;;;;;;;6.40;2.90;;;22.30;85.60;;;;;;6252854;23;20411;-69
2021/10/23 08:11:22;;;;;;;6.03;3.17;;;22.90;82.20;;;;;;6249789;22;20434;-68
2021/10/23 08:13:49;;;;;;;5.80;3.40;;;23.20;78.50;;;;;;6249184;23;20463;-70
2021/10/23 08:16:16;;;;;;;5.53;3.10;;;22.90;77.10;;;;;;6249040;23;20437;-70
2021/10/23 08:18:44;;;;;;;3.50;2.63;;;23.70;76.10;;;;;;6249809;23;20411;-70
2021/10/23 08:21:11;;;;;;;6.03;2.80;;;24.50;72.20;;;;;;6254855;22;20431;-71
2021/10/23 08:23:37;;;;;;;3.20;2.80;;;25.20;70.40;;;;;;6263899;23;20411;-69
2021/10/23 08:26:04;;;;;;;6.30;3.63;;;25.60;66.10;;;;;;6251065;23;20435;-69
2021/10/23 08:28:31;;;;;;;5.70;3.50;;;26.10;65.20;;;;;;6247255;23;20411;-69
2021/10/23 08:30:57;;;;;;;5.57;3.30;;;24.90;64.50;;;;;;6246957;22;20739;-70
2021/10/23 08:33:24;;;;;;;4.10;3.07;;;24.60;64.50;;;;;;6247650;23;20474;-67
2021/10/23 08:35:52;;;;;;;3.90;3.37;;;24.10;65.60;;;;;;6246724;23;20430;-67
2021/10/23 08:38:19;;;;;;;5.63;3.20;;;23.60;65.10;;;;;;6247782;23;20415;-67
2021/10/23 08:40:46;;;;;;;6.33;3.17;;;22.40;66.90;;;;;;6247787;22;20431;-66
2021/10/23 08:43:12;;;;;;;3.53;3.23;;;22.60;68.30;;;;;;6247513;23;20399;-67
2021/10/23 08:45:39;;;;;;;8.33;4.47;;;22.70;72.30;;;;;;6247112;23;20407;-66
2021/10/23 08:48:07;;;;;;;5.93;3.47;;;20.90;76.10;;;;;;6256514;23;20415;-67
2021/10/23 08:50:34;;;;;;;4.80;3.50;;;20.70;77.20;;;;;;6246859;22;20438;-68
2021/10/23 08:53:03;;;;;;;5.13;3.77;;;20.30;79.00;;;;;;6248286;23;20411;-66
2021/10/23 08:55:30;;;;;;;6.20;3.10;;;20.80;80.20;;;;;;6247900;23;20441;-67
2021/10/23 08:57:57;;;;;;;4.07;3.33;;;20.70;76.40;;;;;;6247976;23;20414;-67
2021/10/23 09:00:24;;;;;;;4.93;3.27;;;21.00;76.50;;;;;;6246960;22;20414;-67
2021/10/23 09:02:51;;;;;;;4.93;2.80;;;19.90;79.70;;;;;;6248339;23;20399;-66
2021/10/23 09:05:18;;;;;;;4.50;3.10;;;19.90;79.10;;;;;;6246768;23;20411;-68
2021/10/23 09:07:46;;;;;;;5.53;3.30;;;20.00;77.30;;;;;;6248480;23;20415;-67
2021/10/23 09:10:23;;;;;;;6.87;3.37;;;19.90;78.80;;;;;;6247087;22;20415;-67
2021/10/23 09:13:02;;;;;;;5.77;2.97;;;19.70;77.60;;;;;;6247079;23;20716;-67
2021/10/23 09:15:33;;;;;;;6.17;3.23;;;19.90;78.90;;;;;;6246498;23;20469;-67
2021/10/23 09:18:00;;;;;;;4.57;4.00;;;20.70;81.20;;;;;;6246985;23;20401;-67
2021/10/23 09:20:26;;;;;;;4.37;3.03;;;21.60;78.20;;;;;;6246866;22;20421;-67
2021/10/23 09:22:54;;;;;;;4.47;3.57;;;22.00;75.40;;;;;;6255554;23;20421;-68
2021/10/23 09:25:24;;;;;;;7.67;3.70;;;22.90;74.10;;;;;;6256874;23;20387;-67
2021/10/23 09:27:59;;;;;;;7.53;4.20;;;22.30;72.20;;;;;;6247610;23;20744;-66
2021/10/23 09:30:30;;;;;;;8.87;4.27;;;21.60;73.50;;;;;;6247292;22;20395;-67
2021/10/23 09:33:00;;;;;;;5.63;4.93;;;20.90;76.90;;;;;;6246961;23;20395;-67
2021/10/23 09:35:27;;;;;;;7.83;4.93;;;19.70;79.30;;;;;;6246838;23;20955;-67
2021/10/23 09:37:56;;;;;;;9.20;4.83;;;18.30;82.50;;;;;;6247295;23;20423;-67
2021/10/23 09:40:26;;;;;;;6.80;4.57;;;17.70;86.30;;;;;;6246903;22;20411;-67
2021/10/23 09:43:10;;;;;;;7.97;5.17;;;16.80;90.20;;;;;;6246781;23;20415;-66
2021/10/23 09:45:39;;;;;;;9.20;7.03;;;16.20;91.70;;;;;;6246742;23;20391;-67
2021/10/23 09:48:10;;;;;;;11.33;5.10;;;15.70;93.40;;;;;;6246790;23;20423;-67
2021/10/23 09:50:37;;;;;;;7.63;5.03;;;14.90;95.90;;;;;;6246393;22;20431;-68
2021/10/23 09:53:06;;;;;;;9.20;4.63;;;14.40;99.10;;;;;;6246450;23;20418;-67
2021/10/23 09:55:52;;;;;;;7.80;5.47;;;13.90;99.90;;;;;;6246221;23;20731;-67
2021/10/23 09:58:21;;;;;;;5.23;4.67;;;14.00;99.90;;;;;;6246423;23;20986;-67
2021/10/23 10:00:49;;;;;;;6.77;3.83;;;15.10;99.90;;;;;;6246114;22;20443;-67
2021/10/23 10:03:16;;;;;;;6.73;4.50;;;15.80;99.90;;;;;;6246681;23;20731;-67
2021/10/23 10:05:43;;;;;;;4.40;4.00;;;16.50;97.20;;;;;;6246488;23;20434;-67
2021/10/23 10:08:12;;;;;;;6.27;4.00;;;17.00;96.00;;;;;;6246397;23;20469;-66
2021/10/23 10:10:42;;;;;;;7.90;4.00;;;18.20;94.80;;;;;;6246360;22;20431;-67
2021/10/23 10:13:10;;;;;;;5.37;4.00;;;19.20;91.90;;;;;;6247629;23;20402;-67
2021/10/23 10:15:38;;;;;;;5.37;3.80;;;20.30;90.00;;;;;;6246125;23;20445;-67
2021/10/23 10:18:06;;;;;;;5.60;3.63;;;20.30;84.90;;;;;;6246331;23;20415;-67
2021/10/23 10:20:36;;;;;;;8.13;4.60;;;21.00;83.40;;;;;;6245960;22;20461;-68
2021/10/23 10:23:05;;;;;;;5.70;4.40;;;21.20;81.50;;;;;;6246285;23;20399;-67
2021/10/23 10:25:32;;;;;;;5.00;3.90;;;21.80;83.60;;;;;;6246433;23;20468;-66
2021/10/23 10:28:11;;;;;;;7.37;3.70;;;22.70;76.00;;;;;;6245978;23;20487;-67
2021/10/23 10:30:40;;;;;;;7.13;4.27;;;23.50;69.50;;;;;;6247733;22;20757;-67
2021/10/23 10:33:19;;;;;;;5.20;4.07;;;23.80;66.90;;;;;;6247888;23;20961;-68
2021/10/23 10:38:53;;;;;;;4.30;3.57;;;24.00;68.80;;;;;;6240122;23;20406;-67
2021/10/23 10:44:17;;;;;;;3.60;3.23;;;23.20;69.10;;;;;;6249513;23;20457;-67
2021/10/23 10:47:11;;;;;;;3.70;3.33;;;22.10;70.50;;;;;;6248077;23;20419;-67
2021/10/23 10:49:56;;;;;;;6.13;3.70;;;21.10;71.40;;;;;;6248235;23;20399;-67
2021/10/23 10:52:54;;;;;;;4.93;3.73;;;20.40;74.10;;;;;;6247238;22;20764;-67
2021/10/23 10:55:22;;;;;;;8.23;3.63;;;20.00;74.50;;;;;;6247631;23;20399;-67
2021/10/23 10:57:59;;;;;;;4.00;3.70;;;19.20;79.30;;;;;;6247637;23;20410;-67
2021/10/23 11:01:11;;;;;;;6.30;3.87;;;18.50;81.30;;;;;;6247178;22;20411;-67
2021/10/23 11:03:43;;;;;;;6.67;3.50;;;18.30;82.90;;;;;;6247470;23;20402;-67
2021/10/23 11:06:55;;;;;;;5.10;3.87;;;17.70;86.10;;;;;;6247824;23;20388;-67
2021/10/23 11:09:43;;;;;;;4.03;3.23;;;17.50;84.40;;;;;;6247861;23;20757;-67
2021/10/23 11:12:28;;;;;;;4.63;4.23;;;17.40;85.00;;;;;;6238197;22;20488;-67
2021/10/23 11:14:56;;;;;;;9.97;4.47;;;17.90;86.10;;;;;;6247239;23;20727;-67
2021/10/23 11:17:24;;;;;;;9.57;4.50;;;17.80;84.90;;;;;;6247298;23;20434;-67
2021/10/23 11:19:58;;;;;;;5.50;3.77;;;18.00;88.00;;;;;;6247574;23;20414;-67
2021/10/23 11:22:29;;;;;;;5.67;4.53;;;18.30;87.50;;;;;;6247253;22;20441;-67
2021/10/23 11:25:00;;;;;;;6.73;4.40;;;18.10;85.90;;;;;;6247380;23;20395;-67
2021/10/23 11:27:30;;;;;;;5.10;4.30;;;17.70;83.70;;;;;;6247804;23;20395;-67
2021/10/23 11:30:25;;;;;;;6.67;5.20;;;17.40;84.20;;;;;;6247720;23;20417;-66
2021/10/23 11:32:56;;;;;;;7.63;4.07;;;17.20;87.40;;;;;;6247444;23;20441;-67
2021/10/23 11:35:36;;;;;;;4.43;3.83;;;17.00;88.10;;;;;;6247594;23;20426;-67
2021/10/23 11:38:04;;;;;;;4.70;4.17;;;16.50;88.70;;;;;;6248346;23;20395;-67
2021/10/23 11:40:32;;;;;;;11.33;3.80;;;16.30;90.00;;;;;;6246506;22;20696;-67
2021/10/23 11:42:58;;;;;;;4.00;3.67;;;16.20;89.40;;;;;;6247646;23;20411;-67
2021/10/23 11:45:27;;;;;;;4.17;3.77;;;16.00;90.30;;;;;;6247315;23;20410;-67
2021/10/23 11:47:55;;;;;;;5.50;3.87;;;15.90;90.40;;;;;;6247245;23;20418;-67
2021/10/23 11:50:24;;;;;;;4.00;3.60;;;15.80;91.60;;;;;;6246710;22;20786;-68
2021/10/23 11:52:57;;;;;;;5.00;3.70;;;15.60;91.70;;;;;;6247305;23;20412;-68
2021/10/23 11:55:33;;;;;;;5.33;3.60;;;15.50;92.90;;;;;;6247439;23;20402;-67
2021/10/23 11:58:01;;;;;;;4.13;3.40;;;15.60;91.30;;;;;;6263801;23;20431;-67
2021/10/23 12:00:33;;;;;;;5.87;3.60;;;15.30;91.90;;;;;;6248609;22;20461;-67
2021/10/23 12:03:03;;;;;;;3.77;2.83;;;15.40;91.60;;;;;;6247449;23;20478;-67
2021/10/23 12:05:41;;;;;;;6.20;3.30;;;15.50;91.10;;;;;;6247284;23;20446;-67
2021/10/23 12:08:20;;;;;;;4.17;2.53;;;15.40;89.50;;;;;;6246821;23;20406;-66
2021/10/23 12:11:17;;;;;;;2.80;2.60;;;15.20;89.80;;;;;;6247131;22;20431;-67
2021/10/23 12:14:02;;;;;;;5.77;2.97;;;15.00;90.70;;;;;;6179015;23;20461;-67
2021/10/23 12:16:37;;;;;;;6.63;2.67;;;14.80;90.20;;;;;;6246746;23;20446;-67
2021/10/23 12:19:13;;;;;;;2.90;2.70;;;14.80;90.30;;;;;;6247517;23;20394;-67
2021/10/23 12:21:46;;;;;;;2.90;2.60;;;14.80;90.00;;;;;;6246614;22;20949;-67
2021/10/23 12:24:32;;;;;;;2.40;2.20;;;14.70;90.20;;;;;;6247684;23;20417;-67
2021/10/23 12:27:08;;;;;;;3.20;2.00;;;14.70;91.10;;;;;;6246742;23;20398;-68
2021/10/23 12:29:36;;;;;;;2.27;2.07;;;14.90;91.40;;;;;;6247329;23;20399;-67
2021/10/23 12:32:06;;;;;;;3.80;2.30;;;14.70;90.60;;;;;;6246883;22;20438;-67
2021/10/23 12:34:55;;;;;;;3.87;3.00;;;14.70;91.20;;;;;;6246672;23;20410;-67
2021/10/23 12:37:32;;;;;;;6.07;3.43;;;14.70;92.00;;;;;;6246901;23;20707;-66
2021/10/23 12:40:05;;;;;;;3.73;3.43;;;14.70;91.80;;;;;;6246686;23;20724;-67
2021/10/23 12:42:32;;;;;;;7.93;3.57;;;14.70;91.80;;;;;;6246989;22;20430;-67
2021/10/23 12:44:59;;;;;;;3.87;3.47;;;14.70;91.10;;;;;;6246633;23;20411;-67
2021/10/23 12:47:25;;;;;;;6.57;3.07;;;14.80;91.30;;;;;;6246517;23;20920;-67
2021/10/23 12:49:52;;;;;;;5.67;2.30;;;14.80;91.00;;;;;;6246897;23;20418;-68
2021/10/23 12:52:19;;;;;;;4.50;2.80;;;14.80;91.60;;;;;;6246114;22;20430;-66
2021/10/23 12:54:46;;;;;;;2.03;1.70;;;14.90;92.20;;;;;;6246717;23;20415;-67
2021/10/23 12:57:14;;;;;;;4.03;2.50;;;14.80;91.40;;;;;;6246659;23;20438;-67
2021/10/23 12:59:40;;;;;;;2.60;2.07;;;14.90;91.70;;;;;;6247070;23;20415;-68
2021/10/23 13:02:07;;;;;;;7.40;2.23;;;15.20;91.20;;;;;;6246334;22;20443;-66
2021/10/23 13:04:34;;;;;;;4.90;2.20;;;15.20;90.20;;;;;;6246846;23;20418;-67
2021/10/23 13:07:01;;;;;;;4.10;1.73;;;15.00;87.30;;;;;;6246758;23;20415;-66
2021/10/23 13:09:27;;;;;;;1.90;1.43;;;15.00;86.60;;;;;;6246878;23;20411;-67
2021/10/23 13:11:54;;;;;;;1.90;1.73;;;15.00;89.10;;;;;;6246715;22;20437;-68
2021/10/23 13:14:22;;;;;;;1.83;1.30;;;15.00;86.70;;;;;;6250527;23;20903;-67
2021/10/23 13:16:49;;;;;;;2.87;1.80;;;14.80;84.30;;;;;;6259112;23;20438;-66
2021/10/23 13:19:15;;;;;;;2.03;1.60;;;14.90;85.50;;;;;;6247731;23;20410;-67
2021/10/23 13:21:42;;;;;;;1.80;1.60;;;15.00;84.90;;;;;;6246540;22;20427;-67
2021/10/23 13:24:09;;;;;;;2.87;1.47;;;15.00;84.00;;;;;;6246605;23;20415;-68
2021/10/23 13:26:36;;;;;;;1.70;1.13;;;14.90;83.80;;;;;;6246688;23;20414;-68
2021/10/23 13:29:02;;;;;;;1.97;1.30;;;15.00;84.70;;;;;;6246975;23;20411;-67
2021/10/23 13:31:31;;;;;;;3.27;1.63;;;15.00;85.80;;;;;;6246172;22;20431;-68
2021/10/23 13:33:57;;;;;;;1.83;1.73;;;15.00;86.30;;;;;;6246529;23;20410;-67
2021/10/23 13:36:24;;;;;;;2.37;2.07;;;15.00;86.60;;;;;;6246451;23;20430;-67
2021/10/23 13:38:51;;;;;;;3.07;1.90;;;15.00;86.70;;;;;;6246636;23;20418;-68
2021/10/23 13:41:18;;;;;;;3.03;2.13;;;15.10;88.30;;;;;;6246736;22;20435;-66
2021/10/23 13:43:44;;;;;;;4.03;2.30;;;15.10;89.60;;;;;;6246260;23;20811;-67
2021/10/23 13:46:11;;;;;;;3.47;2.20;;;15.10;88.60;;;;;;6246125;23;20411;-67
2021/10/23 13:48:39;;;;;;;3.13;2.07;;;14.90;88.70;;;;;;6246944;23;20410;-67
2021/10/23 13:51:06;;;;;;;3.83;2.27;;;14.80;87.00;;;;;;6246500;22;20437;-67
2021/10/23 13:53:32;;;;;;;4.20;1.90;;;14.80;88.80;;;;;;6246576;23;20417;-68
2021/10/23 13:55:59;;;;;;;3.40;1.80;;;14.70;88.60;;;;;;6246629;23;20418;-67
2021/10/23 13:58:26;;;;;;;1.30;1.23;;;14.80;90.00;;;;;;6246345;23;20443;-67
2021/10/23 14:00:52;;;;;;;4.87;1.50;;;14.60;89.10;;;;;;6246446;22;20806;-67
2021/10/23 14:03:21;;;;;;;3.00;1.70;;;14.60;91.00;;;;;;6246859;23;20418;-67
2021/10/23 14:05:50;;;;;;;3.10;1.90;;;14.70;90.50;;;;;;6248486;23;20946;-67
2021/10/23 14:08:17;;;;;;;2.63;1.50;;;14.60;90.30;;;;;;6248290;23;20794;-67
2021/10/23 14:10:45;;;;;;;3.20;1.90;;;14.70;90.70;;;;;;6248343;22;20431;-67
2021/10/23 14:13:11;;;;;;;2.50;1.80;;;14.70;90.30;;;;;;6248003;23;20919;-67
2021/10/23 14:15:39;;;;;;;3.87;2.20;;;14.80;90.20;;;;;;6248330;23;20411;-67
2021/10/23 14:18:08;;;;;;;3.20;2.20;;;14.70;91.10;;;;;;6248289;23;20439;-67
2021/10/23 14:20:35;;;;;;;6.23;1.80;;;14.70;90.90;;;;;;6248314;22;20430;-67
2021/10/23 14:23:07;;;;;;;2.40;1.57;;;14.70;90.30;;;;;;6248350;23;20401;-67
2021/10/23 14:25:34;;;;;;;2.53;1.90;;;14.80;90.50;;;;;;6248595;23;20394;-67
2021/10/23 14:28:10;;;;;;;3.77;1.73;;;15.00;90.40;;;;;;6248196;23;20414;-67
2021/10/23 14:30:37;;;;;;;4.53;1.67;;;15.00;89.70;;;;;;6248428;22;20452;-68
2021/10/23 14:33:04;;;;;;;2.70;1.80;;;15.20;88.70;;;;;;6248255;23;20415;-67
2021/10/23 14:35:30;;;;;;;2.17;1.70;;;15.10;88.40;;;;;;6248320;23;20417;-67
2021/10/23 14:37:57;;;;;;;2.40;1.77;;;15.20;89.30;;;;;;6247787;23;20951;-67
2021/10/23 14:40:25;;;;;;;3.17;1.40;;;15.30;90.10;;;;;;6247981;22;20411;-66
2021/10/23 14:42:52;;;;;;;3.23;1.83;;;15.30;88.40;;;;;;6248166;23;20410;-68
2021/10/23 14:45:19;;;;;;;5.80;1.70;;;15.30;88.30;;;;;;6248273;23;20411;-67
2021/10/23 14:47:46;;;;;;;1.73;1.60;;;15.20;87.70;;;;;;6248004;23;20407;-67
2021/10/23 14:50:12;;;;;;;3.67;1.70;;;15.10;85.70;;;;;;6248037;23;20418;-67
2021/10/23 14:52:39;;;;;;;3.13;1.67;;;15.10;85.80;;;;;;6247846;22;20438;-67
2021/10/23 14:55:06;;;;;;;3.53;1.80;;;14.90;86.10;;;;;;6247870;23;20418;-68
2021/10/23 14:57:34;;;;;;;5.00;2.00;;;14.50;86.70;;;;;;6249452;23;20438;-67
2021/10/23 15:00:01;;;;;;;1.90;1.63;;;14.40;85.90;;;;;;6254386;23;20414;-68
2021/10/23 15:02:27;;;;;;;2.20;1.93;;;14.30;87.70;;;;;;6252142;22;20445;-67
2021/10/23 15:04:54;;;;;;;2.27;2.00;;;14.20;88.70;;;;;;6252700;23;20414;-67
2021/10/23 15:07:21;;;;;;;6.50;2.23;;;13.90;89.50;;;;;;6248554;23;20465;-67
2021/10/23 15:09:48;;;;;;;2.43;2.23;;;13.90;90.50;;;;;;6247409;23;20936;-67
2021/10/23 15:12:15;;;;;;;5.23;2.60;;;13.80;90.50;;;;;;6247718;22;20735;-67
2021/10/23 15:14:43;;;;;;;5.77;2.77;;;13.80;91.10;;;;;;6247769;23;20411;-68
2021/10/23 15:17:10;;;;;;;3.90;2.40;;;13.70;91.70;;;;;;6247582;23;20438;-67
2021/10/23 15:19:36;;;;;;;2.67;2.00;;;13.50;92.40;;;;;;6247884;23;20433;-67
2021/10/23 15:22:03;;;;;;;3.53;1.80;;;13.40;92.70;;;;;;6247769;22;20431;-67
2021/10/23 15:24:30;;;;;;;6.07;2.40;;;13.40;92.90;;;;;;6248187;23;20433;-69
2021/10/23 15:26:57;;;;;;;2.60;2.40;;;13.30;93.30;;;;;;6248275;23;20409;-66
2021/10/23 15:29:24;;;;;;;4.67;2.00;;;13.20;93.10;;;;;;6247737;23;20429;-67
2021/10/23 15:31:53;;;;;;;2.10;1.63;;;13.10;93.30;;;;;;6247588;22;20438;-66
2021/10/23 15:34:20;;;;;;;3.47;2.47;;;13.10;93.70;;;;;;6247114;23;20918;-66
2021/10/23 15:36:47;;;;;;;5.03;2.83;;;13.00;94.10;;;;;;6256313;23;20406;-66
2021/10/23 15:39:15;;;;;;;2.40;2.10;;;13.00;94.50;;;;;;6254446;23;20402;-66
2021/10/23 15:41:49;;;;;;;3.30;2.10;;;12.90;94.70;;;;;;6248170;22;20513;-66
2021/10/23 15:44:17;;;;;;;4.07;3.77;;;12.90;95.30;;;;;;6247694;23;20391;-67
2021/10/23 15:46:44;;;;;;;4.73;4.27;;;12.80;95.50;;;;;;6247097;23;20903;-65
2021/10/23 15:49:15;;;;;;;4.10;3.33;;;12.70;96.20;;;;;;6246897;23;20407;-66
2021/10/23 15:51:42;;;;;;;3.70;3.40;;;12.70;96.40;;;;;;6247542;22;20453;-65
2021/10/23 15:54:09;;;;;;;4.73;3.97;;;12.60;96.40;;;;;;6247330;23;20474;-66
2021/10/23 15:56:36;;;;;;;12.93;4.30;;;12.50;96.90;;;;;;6247377;23;20407;-65
2021/10/23 15:59:03;;;;;;;6.40;4.53;;;12.50;97.50;;;;;;6247347;23;20453;-66
2021/10/23 16:01:30;;;;;;;5.67;4.90;;;12.30;97.80;;;;;;6246888;22;20442;-66
2021/10/23 16:03:57;;;;;;;8.00;4.17;;;12.30;98.00;;;;;;6247281;23;20415;-66
2021/10/23 16:06:25;;;;;;;4.70;3.90;;;12.20;98.70;;;;;;6247192;23;20411;-66
2021/10/23 16:08:52;;;;;;;6.87;4.50;;;12.10;98.80;;;;;;6247179;23;20476;-66
2021/10/23 16:11:19;;;;;;;7.77;4.53;;;12.00;99.40;;;;;;6246722;22;20462;-66
2021/10/23 16:13:46;;;;;;;6.23;3.60;;;12.00;99.90;;;;;;6247067;23;20411;-66
2021/10/23 16:16:13;;;;;;;3.67;3.30;;;11.90;99.90;;;;;;6247036;23;20422;-66
2021/10/23 16:18:40;;;;;;;5.47;3.57;;;11.90;99.90;;;;;;6247085;23;20457;-66
2021/10/23 16:21:07;;;;;;;7.10;3.83;;;11.80;99.90;;;;;;6247267;22;20435;-66
2021/10/23 16:23:35;;;;;;;7.00;3.80;;;11.80;99.90;;;;;;6247744;23;20411;-66
2021/10/23 16:26:03;;;;;;;3.73;2.87;;;11.70;99.90;;;;;;6247086;23;20904;-66
2021/10/23 16:28:31;;;;;;;3.70;3.40;;;11.60;99.90;;;;;;6248294;23;20414;-66
2021/10/23 16:30:58;;;;;;;6.37;3.40;;;11.60;99.90;;;;;;6247544;22;20435;-66
2021/10/23 16:33:25;;;;;;;5.57;4.30;;;11.50;99.90;;;;;;6248318;23;20417;-66
2021/10/23 16:35:52;;;;;;;5.20;4.70;;;11.40;99.90;;;;;;6247209;23;20417;-66
2021/10/23 16:38:19;;;;;;;9.97;5.17;;;11.30;99.90;;;;;;6247250;23;20491;-66
2021/10/23 16:40:47;;;;;;;4.00;3.63;;;11.20;99.90;;;;;;6247130;22;20430;-66
2021/10/23 16:43:13;;;;;;;6.97;4.20;;;11.20;99.90;;;;;;6246773;23;20759;-66
2021/10/23 16:45:40;;;;;;;3.20;2.90;;;11.10;99.90;;;;;;6247167;23;20418;-65
2021/10/23 16:48:07;;;;;;;4.23;3.13;;;11.10;99.90;;;;;;6247685;23;20414;-65
2021/10/23 16:50:34;;;;;;;5.30;3.30;;;11.00;99.90;;;;;;6246785;22;20434;-68
2021/10/23 16:53:01;;;;;;;6.67;3.40;;;11.00;99.90;;;;;;6247081;23;20434;-66
2021/10/23 16:55:28;;;;;;;3.30;3.00;;;10.90;99.90;;;;;;6256122;23;20948;-67
2021/10/23 16:57:57;;;;;;;6.70;3.43;;;10.90;99.90;;;;;;6248325;23;20438;-66
2021/10/23 17:00:23;;;;;;;5.50;3.47;;;10.80;99.90;;;;;;6246740;22;20407;-66
2021/10/23 17:02:50;;;;;;;4.80;3.57;;;10.80;99.90;;;;;;6246711;23;20394;-66